메인 페이지
METAR-TAF:

METAR-TAF

공항 :

브리즈번 공항

브리즈번, 오스트레일리아

위도: 27-23S, 경도: 153-06E, 고도: 4m

현재 날씨관측

예보는 32분 전, 17:00시(UTC)에 발표되었습니다.
동북동7kt
온도 20°C
습도 88%
기압 1016 hPa
시정 10km 이상
고도 500ft 상공 구름 조금
고도 4500ft 상공 구름 많음

METAR: YBBN 171700Z 07007KT 9999 FEW005 BKN045 20/18 Q1016 INTER 1700/2000 5000 SHRA BKN010

시각: 03:32 (17:32 UTC)

예보

예보는 6 시간 14분 전, 11:18시(UTC)에 발표되었습니다.
예보 대상 시간: 17일 12시부터 18일 18시까지 (UTC)
동남동8kt
시정 10km 이상
고도 1500ft 상공 구름 조금
고도 2500ft 상공 구름 보통
약한소나기
17일 1400시부터 (UTC)
6kt
시정 10km 이상
고도 500ft 상공 구름 조금
고도 1500ft 상공 구름 보통
고도 2500ft 상공 구름 보통
약한소나기
17일 2200시부터 (UTC)
10kt
시정 10km 이상
고도 2500ft 상공 구름 보통
약한소나기
18일 0200시부터 (UTC)
동북동10kt
시정 10km 이상
고도 2500ft 상공 구름 조금
고도 4000ft 상공 구름 보통
약한소나기
18일 1000시부터 (UTC)
동남동6kt
시정: 5000m
고도 1500ft 상공 구름 조금
고도 3000ft 상공 구름 보통
고도 1000ft 상공 구름 많음
소나기

TAF: YBBN 171118Z 1712/1818 12008KT 9999 -SHRA FEW015 SCT025 FM171400 18006KT 9999 -SHRA FEW005 SCT015 SCT025 FM172200 10010KT 9999 -SHRA SCT025 FM180200 07010KT 9999 -SHRA FEW025 SCT040 FM181000 12006KT 9999 FEW015 SCT030 INTER 1714/1722 5000 SHRA BKN010

4,000개 이상의 공항 관측 자료 및 예보 (METAR 및 TAF 보고).

지도상에서 검색 가능한 기상관측소가 노란 점과 빨간 점으로 표시되어 있습니다.

기상관측소 명을 보려면 표시 위로 마우스를 이동하세요.

날씨 관측과 예보를 보려면 클릭하세요.

지도 변경 : 확대하려면 엑스 표시가 있는 녹색 버튼, 축소하려면 빼기 표시가 있는 녹색 버튼, 다음 페이지의 지도를 보려면 녹색 화살표를 클릭하세요.


METAR-TAF: